sensor_id;sensor_type;location;lat;lon;timestamp;temperature;humidity
34460;DHT22;20704;51.260;22.558;2023-09-19T00:00:56;18.30;1.00
34460;DHT22;20704;51.260;22.558;2023-09-19T00:03:12;18.30;25.10
34460;DHT22;20704;51.260;22.558;2023-09-19T00:05:15;18.30;99.90
34460;DHT22;20704;51.260;22.558;2023-09-19T00:07:17;18.30;99.90
34460;DHT22;20704;51.260;22.558;2023-09-19T00:09:20;18.20;99.90
34460;DHT22;20704;51.260;22.558;2023-09-19T00:11:22;18.20;99.90
34460;DHT22;20704;51.260;22.558;2023-09-19T00:13:28;18.20;99.90
34460;DHT22;20704;51.260;22.558;2023-09-19T00:15:35;18.20;99.90
34460;DHT22;20704;51.260;22.558;2023-09-19T00:17:39;18.20;1.00
34460;DHT22;20704;51.260;22.558;2023-09-19T00:19:42;18.20;1.00
34460;DHT22;20704;51.260;22.558;2023-09-19T00:21:45;18.10;1.00
34460;DHT22;20704;51.260;22.558;2023-09-19T00:23:49;18.10;11.80
34460;DHT22;20704;51.260;22.558;2023-09-19T00:25:53;18.10;3.10
34460;DHT22;20704;51.260;22.558;2023-09-19T00:27:59;18.10;60.70
34460;DHT22;20704;51.260;22.558;2023-09-19T00:30:01;18.10;54.00
34460;DHT22;20704;51.260;22.558;2023-09-19T00:32:07;18.10;97.30
34460;DHT22;20704;51.260;22.558;2023-09-19T00:34:09;18.00;99.90
34460;DHT22;20704;51.260;22.558;2023-09-19T00:36:12;18.00;99.90
34460;DHT22;20704;51.260;22.558;2023-09-19T00:38:16;18.00;99.90
34460;DHT22;20704;51.260;22.558;2023-09-19T00:40:19;18.00;99.90
34460;DHT22;20704;51.260;22.558;2023-09-19T00:42:23;18.00;99.90
34460;DHT22;20704;51.260;22.558;2023-09-19T00:44:28;18.00;99.90
34460;DHT22;20704;51.260;22.558;2023-09-19T00:46:32;17.90;1.00
34460;DHT22;20704;51.260;22.558;2023-09-19T00:48:40;17.90;1.00
34460;DHT22;20704;51.260;22.558;2023-09-19T00:50:47;17.90;1.00
34460;DHT22;20704;51.260;22.558;2023-09-19T00:52:54;17.90;1.00
34460;DHT22;20704;51.260;22.558;2023-09-19T00:55:01;17.90;1.00
34460;DHT22;20704;51.260;22.558;2023-09-19T00:57:05;17.80;1.00
34460;DHT22;20704;51.260;22.558;2023-09-19T00:59:12;17.90;17.90
34460;DHT22;20704;51.260;22.558;2023-09-19T01:01:15;17.80;74.70
34460;DHT22;20704;51.260;22.558;2023-09-19T01:03:18;17.80;66.90
34460;DHT22;20704;51.260;22.558;2023-09-19T01:05:21;17.80;99.90
34460;DHT22;20704;51.260;22.558;2023-09-19T01:07:24;17.80;99.90
34460;DHT22;20704;51.260;22.558;2023-09-19T01:09:26;17.80;99.90
34460;DHT22;20704;51.260;22.558;2023-09-19T01:11:35;17.80;99.90
34460;DHT22;20704;51.260;22.558;2023-09-19T01:13:58;17.70;99.90
34460;DHT22;20704;51.260;22.558;2023-09-19T01:16:28;17.70;99.90
34460;DHT22;20704;51.260;22.558;2023-09-19T01:18:47;17.70;99.90
34460;DHT22;20704;51.260;22.558;2023-09-19T01:21:22;17.70;99.90
34460;DHT22;20704;51.260;22.558;2023-09-19T01:25:50;17.70;99.90
34460;DHT22;20704;51.260;22.558;2023-09-19T01:30:14;17.70;99.90
34460;DHT22;20704;51.260;22.558;2023-09-19T01:32:19;17.70;99.90
34460;DHT22;20704;51.260;22.558;2023-09-19T01:34:24;17.60;99.90
34460;DHT22;20704;51.260;22.558;2023-09-19T01:36:34;17.60;99.90
34460;DHT22;20704;51.260;22.558;2023-09-19T01:38:38;17.60;99.90
34460;DHT22;20704;51.260;22.558;2023-09-19T01:40:51;17.60;99.90
34460;DHT22;20704;51.260;22.558;2023-09-19T01:43:17;17.60;99.90
34460;DHT22;20704;51.260;22.558;2023-09-19T01:45:43;17.60;99.90
34460;DHT22;20704;51.260;22.558;2023-09-19T01:47:52;17.60;99.90
34460;DHT22;20704;51.260;22.558;2023-09-19T01:50:17;17.60;99.90
34460;DHT22;20704;51.260;22.558;2023-09-19T01:52:26;17.60;99.90
34460;DHT22;20704;51.260;22.558;2023-09-19T01:54:40;17.70;99.90
34460;DHT22;20704;51.260;22.558;2023-09-19T01:56:50;17.60;99.90
34460;DHT22;20704;51.260;22.558;2023-09-19T01:58:56;17.60;83.20
34460;DHT22;20704;51.260;22.558;2023-09-19T02:01:03;17.60;51.50
34460;DHT22;20704;51.260;22.558;2023-09-19T02:03:09;17.60;74.20
34460;DHT22;20704;51.260;22.558;2023-09-19T02:05:12;17.60;99.90
34460;DHT22;20704;51.260;22.558;2023-09-19T02:07:15;17.60;99.90
34460;DHT22;20704;51.260;22.558;2023-09-19T02:09:17;17.50;99.90
34460;DHT22;20704;51.260;22.558;2023-09-19T02:11:20;17.60;99.90
34460;DHT22;20704;51.260;22.558;2023-09-19T02:13:23;17.60;94.70
34460;DHT22;20704;51.260;22.558;2023-09-19T02:15:30;17.60;19.10
34460;DHT22;20704;51.260;22.558;2023-09-19T02:17:36;17.60;2.50
34460;DHT22;20704;51.260;22.558;2023-09-19T02:19:38;17.60;1.00
34460;DHT22;20704;51.260;22.558;2023-09-19T02:21:41;17.60;1.00
34460;DHT22;20704;51.260;22.558;2023-09-19T02:23:47;17.60;1.00
34460;DHT22;20704;51.260;22.558;2023-09-19T02:25:54;17.60;1.00
34460;DHT22;20704;51.260;22.558;2023-09-19T02:27:56;17.60;1.00
34460;DHT22;20704;51.260;22.558;2023-09-19T02:30:00;17.60;1.00
34460;DHT22;20704;51.260;22.558;2023-09-19T02:32:06;17.60;1.00
34460;DHT22;20704;51.260;22.558;2023-09-19T02:34:09;17.60;99.90
34460;DHT22;20704;51.260;22.558;2023-09-19T02:36:11;17.70;99.90
34460;DHT22;20704;51.260;22.558;2023-09-19T02:38:14;17.70;99.90
34460;DHT22;20704;51.260;22.558;2023-09-19T02:40:20;17.60;99.90
34460;DHT22;20704;51.260;22.558;2023-09-19T02:42:27;17.70;99.90
34460;DHT22;20704;51.260;22.558;2023-09-19T02:44:30;17.70;99.90
34460;DHT22;20704;51.260;22.558;2023-09-19T02:46:32;17.70;91.40
34460;DHT22;20704;51.260;22.558;2023-09-19T02:48:35;17.80;14.70
34460;DHT22;20704;51.260;22.558;2023-09-19T02:50:38;17.70;1.00
34460;DHT22;20704;51.260;22.558;2023-09-19T02:52:43;17.80;1.00
34460;DHT22;20704;51.260;22.558;2023-09-19T02:54:46;17.80;1.00
34460;DHT22;20704;51.260;22.558;2023-09-19T02:56:48;17.90;99.90
34460;DHT22;20704;51.260;22.558;2023-09-19T02:58:51;17.80;99.90
34460;DHT22;20704;51.260;22.558;2023-09-19T03:00:54;17.80;99.90
34460;DHT22;20704;51.260;22.558;2023-09-19T03:02:57;17.80;99.90
34460;DHT22;20704;51.260;22.558;2023-09-19T03:04:59;17.80;99.90
34460;DHT22;20704;51.260;22.558;2023-09-19T03:07:02;17.90;23.10
34460;DHT22;20704;51.260;22.558;2023-09-19T03:09:07;17.90;1.00
34460;DHT22;20704;51.260;22.558;2023-09-19T03:11:13;17.90;1.00
34460;DHT22;20704;51.260;22.558;2023-09-19T03:13:18;17.90;1.00
34460;DHT22;20704;51.260;22.558;2023-09-19T03:15:20;17.90;1.00
34460;DHT22;20704;51.260;22.558;2023-09-19T03:17:23;17.90;1.00
34460;DHT22;20704;51.260;22.558;2023-09-19T03:19:26;17.80;1.00
34460;DHT22;20704;51.260;22.558;2023-09-19T03:21:29;17.90;1.00
34460;DHT22;20704;51.260;22.558;2023-09-19T03:23:32;17.90;20.50
34460;DHT22;20704;51.260;22.558;2023-09-19T03:25:35;17.90;14.10
34460;DHT22;20704;51.260;22.558;2023-09-19T03:27:39;17.80;41.00
34460;DHT22;20704;51.260;22.558;2023-09-19T03:29:42;17.90;1.00
34460;DHT22;20704;51.260;22.558;2023-09-19T03:31:44;17.80;1.00
34460;DHT22;20704;51.260;22.558;2023-09-19T03:33:47;17.80;1.00
34460;DHT22;20704;51.260;22.558;2023-09-19T03:35:53;17.80;1.00
34460;DHT22;20704;51.260;22.558;2023-09-19T03:37:56;17.80;1.00
34460;DHT22;20704;51.260;22.558;2023-09-19T03:39:58;17.80;1.00
34460;DHT22;20704;51.260;22.558;2023-09-19T03:42:01;17.90;99.90
34460;DHT22;20704;51.260;22.558;2023-09-19T03:44:06;17.90;99.90
34460;DHT22;20704;51.260;22.558;2023-09-19T03:46:08;17.90;99.90
34460;DHT22;20704;51.260;22.558;2023-09-19T03:48:10;17.90;99.90
34460;DHT22;20704;51.260;22.558;2023-09-19T03:50:13;17.90;65.90
34460;DHT22;20704;51.260;22.558;2023-09-19T03:52:20;18.00;1.00
34460;DHT22;20704;51.260;22.558;2023-09-19T03:54:22;18.00;1.00
34460;DHT22;20704;51.260;22.558;2023-09-19T03:56:24;17.90;99.90
34460;DHT22;20704;51.260;22.558;2023-09-19T03:58:26;18.00;99.90
34460;DHT22;20704;51.260;22.558;2023-09-19T04:00:29;17.90;99.90
34460;DHT22;20704;51.260;22.558;2023-09-19T04:02:31;17.90;99.90
34460;DHT22;20704;51.260;22.558;2023-09-19T04:04:35;17.90;99.90
34460;DHT22;20704;51.260;22.558;2023-09-19T04:06:37;17.90;99.90
34460;DHT22;20704;51.260;22.558;2023-09-19T04:08:40;18.00;99.90
34460;DHT22;20704;51.260;22.558;2023-09-19T04:10:43;18.00;99.90
34460;DHT22;20704;51.260;22.558;2023-09-19T04:12:56;17.90;99.90
34460;DHT22;20704;51.260;22.558;2023-09-19T04:14:58;17.90;99.90
34460;DHT22;20704;51.260;22.558;2023-09-19T04:17:00;17.90;99.90
34460;DHT22;20704;51.260;22.558;2023-09-19T04:19:03;18.00;99.90
34460;DHT22;20704;51.260;22.558;2023-09-19T04:21:05;18.00;99.90
34460;DHT22;20704;51.260;22.558;2023-09-19T04:23:08;18.00;30.00
34460;DHT22;20704;51.260;22.558;2023-09-19T04:25:12;18.10;24.30
34460;DHT22;20704;51.260;22.558;2023-09-19T04:27:15;18.10;99.90
34460;DHT22;20704;51.260;22.558;2023-09-19T04:29:17;18.10;99.90
34460;DHT22;20704;51.260;22.558;2023-09-19T04:31:21;18.10;99.90
34460;DHT22;20704;51.260;22.558;2023-09-19T04:33:25;18.10;99.90
34460;DHT22;20704;51.260;22.558;2023-09-19T04:35:29;17.90;99.90
34460;DHT22;20704;51.260;22.558;2023-09-19T04:37:33;18.10;99.90
34460;DHT22;20704;51.260;22.558;2023-09-19T04:39:36;18.10;99.90
34460;DHT22;20704;51.260;22.558;2023-09-19T04:41:38;18.10;99.90
34460;DHT22;20704;51.260;22.558;2023-09-19T04:43:42;18.10;99.90
34460;DHT22;20704;51.260;22.558;2023-09-19T04:45:45;18.20;99.90
34460;DHT22;20704;51.260;22.558;2023-09-19T04:47:48;18.20;99.90
34460;DHT22;20704;51.260;22.558;2023-09-19T04:49:51;18.20;1.00
34460;DHT22;20704;51.260;22.558;2023-09-19T04:51:56;18.20;1.00
34460;DHT22;20704;51.260;22.558;2023-09-19T04:53:59;18.30;1.00
34460;DHT22;20704;51.260;22.558;2023-09-19T04:56:01;18.30;1.00
34460;DHT22;20704;51.260;22.558;2023-09-19T04:58:05;18.30;1.00
34460;DHT22;20704;51.260;22.558;2023-09-19T05:00:08;18.30;1.00
34460;DHT22;20704;51.260;22.558;2023-09-19T05:02:14;18.30;1.00
34460;DHT22;20704;51.260;22.558;2023-09-19T05:04:17;18.30;99.90
34460;DHT22;20704;51.260;22.558;2023-09-19T05:06:19;18.40;99.90
34460;DHT22;20704;51.260;22.558;2023-09-19T05:08:24;18.40;99.90
34460;DHT22;20704;51.260;22.558;2023-09-19T05:10:27;18.60;99.90
34460;DHT22;20704;51.260;22.558;2023-09-19T05:12:29;18.70;99.90
34460;DHT22;20704;51.260;22.558;2023-09-19T05:14:31;19.00;1.00
34460;DHT22;20704;51.260;22.558;2023-09-19T05:16:34;19.10;95.30
34460;DHT22;20704;51.260;22.558;2023-09-19T05:18:36;19.20;99.90
34460;DHT22;20704;51.260;22.558;2023-09-19T05:20:39;19.30;99.90
34460;DHT22;20704;51.260;22.558;2023-09-19T05:22:42;19.40;18.30
34460;DHT22;20704;51.260;22.558;2023-09-19T05:24:45;19.60;1.00
34460;DHT22;20704;51.260;22.558;2023-09-19T05:26:50;19.60;1.00
34460;DHT22;20704;51.260;22.558;2023-09-19T05:28:52;19.80;1.00
34460;DHT22;20704;51.260;22.558;2023-09-19T05:30:55;20.00;99.90
34460;DHT22;20704;51.260;22.558;2023-09-19T05:32:58;20.20;99.90
34460;DHT22;20704;51.260;22.558;2023-09-19T05:35:00;20.30;56.10
34460;DHT22;20704;51.260;22.558;2023-09-19T05:37:03;20.70;11.90
34460;DHT22;20704;51.260;22.558;2023-09-19T05:39:05;21.10;1.00
34460;DHT22;20704;51.260;22.558;2023-09-19T05:41:11;21.50;1.00
34460;DHT22;20704;51.260;22.558;2023-09-19T05:43:16;21.70;99.90
34460;DHT22;20704;51.260;22.558;2023-09-19T05:45:18;21.90;99.90
34460;DHT22;20704;51.260;22.558;2023-09-19T05:47:24;21.60;99.90
34460;DHT22;20704;51.260;22.558;2023-09-19T05:49:27;21.50;99.90
34460;DHT22;20704;51.260;22.558;2023-09-19T05:51:29;21.50;99.90
34460;DHT22;20704;51.260;22.558;2023-09-19T05:53:32;21.50;99.90
34460;DHT22;20704;51.260;22.558;2023-09-19T05:55:34;21.60;99.90
34460;DHT22;20704;51.260;22.558;2023-09-19T05:57:38;22.10;99.90
34460;DHT22;20704;51.260;22.558;2023-09-19T05:59:45;22.50;99.90
34460;DHT22;20704;51.260;22.558;2023-09-19T06:01:48;22.80;99.90
34460;DHT22;20704;51.260;22.558;2023-09-19T06:03:50;23.00;99.90
34460;DHT22;20704;51.260;22.558;2023-09-19T06:05:55;23.50;99.90
34460;DHT22;20704;51.260;22.558;2023-09-19T06:07:59;24.10;99.90
34460;DHT22;20704;51.260;22.558;2023-09-19T06:10:06;24.90;99.90
34460;DHT22;20704;51.260;22.558;2023-09-19T06:12:09;25.40;99.90
34460;DHT22;20704;51.260;22.558;2023-09-19T06:14:11;26.00;99.90
34460;DHT22;20704;51.260;22.558;2023-09-19T06:16:14;26.70;99.90
34460;DHT22;20704;51.260;22.558;2023-09-19T06:18:16;26.90;99.90
34460;DHT22;20704;51.260;22.558;2023-09-19T06:20:23;27.50;99.90
34460;DHT22;20704;51.260;22.558;2023-09-19T06:22:26;27.40;99.90
34460;DHT22;20704;51.260;22.558;2023-09-19T06:24:28;26.60;99.90
34460;DHT22;20704;51.260;22.558;2023-09-19T06:26:31;26.80;99.90
34460;DHT22;20704;51.260;22.558;2023-09-19T06:28:34;26.10;99.90
34460;DHT22;20704;51.260;22.558;2023-09-19T06:30:36;25.70;99.90
34460;DHT22;20704;51.260;22.558;2023-09-19T06:32:41;25.60;99.90
34460;DHT22;20704;51.260;22.558;2023-09-19T06:34:52;25.80;99.90
34460;DHT22;20704;51.260;22.558;2023-09-19T06:36:56;25.70;99.90
34460;DHT22;20704;51.260;22.558;2023-09-19T06:38:58;25.20;99.90
34460;DHT22;20704;51.260;22.558;2023-09-19T06:41:02;24.60;99.90
34460;DHT22;20704;51.260;22.558;2023-09-19T06:43:07;24.20;99.90
34460;DHT22;20704;51.260;22.558;2023-09-19T06:45:09;23.80;99.90
34460;DHT22;20704;51.260;22.558;2023-09-19T06:47:13;23.50;99.90
34460;DHT22;20704;51.260;22.558;2023-09-19T06:49:18;23.10;99.90
34460;DHT22;20704;51.260;22.558;2023-09-19T06:51:21;22.80;99.90
34460;DHT22;20704;51.260;22.558;2023-09-19T06:53:24;22.60;99.90
34460;DHT22;20704;51.260;22.558;2023-09-19T06:55:26;22.40;99.90
34460;DHT22;20704;51.260;22.558;2023-09-19T06:57:34;22.10;99.90
34460;DHT22;20704;51.260;22.558;2023-09-19T06:59:36;21.90;1.00
34460;DHT22;20704;51.260;22.558;2023-09-19T07:01:39;21.70;1.00
34460;DHT22;20704;51.260;22.558;2023-09-19T07:03:42;21.60;1.00
34460;DHT22;20704;51.260;22.558;2023-09-19T07:05:48;21.60;1.00
34460;DHT22;20704;51.260;22.558;2023-09-19T07:07:50;21.40;1.00
34460;DHT22;20704;51.260;22.558;2023-09-19T07:09:52;21.30;99.90
34460;DHT22;20704;51.260;22.558;2023-09-19T07:11:56;21.20;99.90
34460;DHT22;20704;51.260;22.558;2023-09-19T07:13:58;21.10;99.90
34460;DHT22;20704;51.260;22.558;2023-09-19T07:16:01;21.10;99.90
34460;DHT22;20704;51.260;22.558;2023-09-19T07:18:03;21.10;99.90
34460;DHT22;20704;51.260;22.558;2023-09-19T07:20:06;21.10;99.90
34460;DHT22;20704;51.260;22.558;2023-09-19T07:22:12;21.10;99.90
34460;DHT22;20704;51.260;22.558;2023-09-19T07:24:15;21.00;99.90
34460;DHT22;20704;51.260;22.558;2023-09-19T07:26:17;20.90;99.90
34460;DHT22;20704;51.260;22.558;2023-09-19T07:28:19;20.80;1.00
34460;DHT22;20704;51.260;22.558;2023-09-19T07:30:22;20.80;1.00
34460;DHT22;20704;51.260;22.558;2023-09-19T07:32:25;20.80;1.00
34460;DHT22;20704;51.260;22.558;2023-09-19T07:34:27;20.80;1.00
34460;DHT22;20704;51.260;22.558;2023-09-19T07:36:30;20.80;1.00
34460;DHT22;20704;51.260;22.558;2023-09-19T07:38:32;20.70;1.00
34460;DHT22;20704;51.260;22.558;2023-09-19T07:40:37;20.70;1.00
34460;DHT22;20704;51.260;22.558;2023-09-19T07:42:40;20.60;1.00
34460;DHT22;20704;51.260;22.558;2023-09-19T07:44:43;20.60;1.00
34460;DHT22;20704;51.260;22.558;2023-09-19T07:46:48;20.60;1.00
34460;DHT22;20704;51.260;22.558;2023-09-19T07:48:53;20.50;1.00
34460;DHT22;20704;51.260;22.558;2023-09-19T07:50:55;20.50;1.00
34460;DHT22;20704;51.260;22.558;2023-09-19T07:52:58;20.40;1.00
34460;DHT22;20704;51.260;22.558;2023-09-19T07:55:01;20.30;1.00
34460;DHT22;20704;51.260;22.558;2023-09-19T07:57:08;20.40;1.00
34460;DHT22;20704;51.260;22.558;2023-09-19T07:59:11;20.30;1.00
34460;DHT22;20704;51.260;22.558;2023-09-19T08:01:13;20.30;1.00
34460;DHT22;20704;51.260;22.558;2023-09-19T08:03:16;20.30;1.00
34460;DHT22;20704;51.260;22.558;2023-09-19T08:05:20;20.20;1.00
34460;DHT22;20704;51.260;22.558;2023-09-19T08:07:23;20.20;3.20
34460;DHT22;20704;51.260;22.558;2023-09-19T08:09:26;20.20;4.90
34460;DHT22;20704;51.260;22.558;2023-09-19T08:11:29;20.10;17.20
34460;DHT22;20704;51.260;22.558;2023-09-19T08:13:33;20.00;32.90
34460;DHT22;20704;51.260;22.558;2023-09-19T08:15:35;20.00;61.10
34460;DHT22;20704;51.260;22.558;2023-09-19T08:17:42;20.00;97.00
34460;DHT22;20704;51.260;22.558;2023-09-19T08:19:45;20.00;99.90
34460;DHT22;20704;51.260;22.558;2023-09-19T08:21:48;20.00;99.90
34460;DHT22;20704;51.260;22.558;2023-09-19T08:23:51;19.90;99.90
34460;DHT22;20704;51.260;22.558;2023-09-19T08:25:58;19.80;99.90
34460;DHT22;20704;51.260;22.558;2023-09-19T08:28:03;19.80;99.90
34460;DHT22;20704;51.260;22.558;2023-09-19T08:30:11;19.80;99.90
34460;DHT22;20704;51.260;22.558;2023-09-19T08:32:13;19.80;99.90
34460;DHT22;20704;51.260;22.558;2023-09-19T08:34:16;19.80;99.90
34460;DHT22;20704;51.260;22.558;2023-09-19T08:36:20;19.80;99.90
34460;DHT22;20704;51.260;22.558;2023-09-19T08:38:22;19.80;99.90
34460;DHT22;20704;51.260;22.558;2023-09-19T08:40:24;19.80;99.90
34460;DHT22;20704;51.260;22.558;2023-09-19T08:42:29;19.80;99.90
34460;DHT22;20704;51.260;22.558;2023-09-19T08:44:36;19.80;99.90
34460;DHT22;20704;51.260;22.558;2023-09-19T08:46:41;19.80;99.90
34460;DHT22;20704;51.260;22.558;2023-09-19T08:49:05;19.80;99.90
34460;DHT22;20704;51.260;22.558;2023-09-19T08:51:23;19.80;99.90
34460;DHT22;20704;51.260;22.558;2023-09-19T08:55:51;19.70;99.90
34460;DHT22;20704;51.260;22.558;2023-09-19T08:58:01;19.80;99.90
34460;DHT22;20704;51.260;22.558;2023-09-19T09:00:05;19.70;99.90
34460;DHT22;20704;51.260;22.558;2023-09-19T09:02:13;19.70;99.90
34460;DHT22;20704;51.260;22.558;2023-09-19T09:04:16;19.60;99.90
34460;DHT22;20704;51.260;22.558;2023-09-19T09:06:20;19.60;99.90
34460;DHT22;20704;51.260;22.558;2023-09-19T09:08:22;19.50;1.00
34460;DHT22;20704;51.260;22.558;2023-09-19T09:10:25;19.50;99.90
34460;DHT22;20704;51.260;22.558;2023-09-19T09:12:29;19.40;99.90
34460;DHT22;20704;51.260;22.558;2023-09-19T09:14:32;19.40;99.90
34460;DHT22;20704;51.260;22.558;2023-09-19T09:16:36;19.30;99.90
34460;DHT22;20704;51.260;22.558;2023-09-19T09:18:39;19.30;99.90
34460;DHT22;20704;51.260;22.558;2023-09-19T09:20:41;19.40;99.90
34460;DHT22;20704;51.260;22.558;2023-09-19T09:22:54;19.20;1.00
34460;DHT22;20704;51.260;22.558;2023-09-19T09:24:58;19.40;14.80
34460;DHT22;20704;51.260;22.558;2023-09-19T09:27:02;19.30;1.00
34460;DHT22;20704;51.260;22.558;2023-09-19T09:29:11;19.40;1.00
34460;DHT22;20704;51.260;22.558;2023-09-19T09:31:23;19.40;1.00
34460;DHT22;20704;51.260;22.558;2023-09-19T09:33:27;19.50;1.00
34460;DHT22;20704;51.260;22.558;2023-09-19T09:35:31;19.50;99.90
34460;DHT22;20704;51.260;22.558;2023-09-19T09:37:33;19.60;99.90
34460;DHT22;20704;51.260;22.558;2023-09-19T09:39:36;19.60;99.90
34460;DHT22;20704;51.260;22.558;2023-09-19T09:41:38;19.70;99.90
34460;DHT22;20704;51.260;22.558;2023-09-19T09:43:42;19.60;99.90
34460;DHT22;20704;51.260;22.558;2023-09-19T09:48:25;19.80;1.00
34460;DHT22;20704;51.260;22.558;2023-09-19T09:50:35;19.80;48.40
34460;DHT22;20704;51.260;22.558;2023-09-19T09:52:46;19.80;99.90
34460;DHT22;20704;51.260;22.558;2023-09-19T09:55:00;19.90;99.90
34460;DHT22;20704;51.260;22.558;2023-09-19T09:57:11;19.90;99.90
34460;DHT22;20704;51.260;22.558;2023-09-19T09:59:16;19.90;1.00
34460;DHT22;20704;51.260;22.558;2023-09-19T10:01:20;19.90;99.90
34460;DHT22;20704;51.260;22.558;2023-09-19T10:03:40;20.00;99.90
34460;DHT22;20704;51.260;22.558;2023-09-19T10:05:46;20.00;21.10
34460;DHT22;20704;51.260;22.558;2023-09-19T10:07:50;20.00;99.90
34460;DHT22;20704;51.260;22.558;2023-09-19T10:10:12;20.10;99.90
34460;DHT22;20704;51.260;22.558;2023-09-19T10:12:19;20.10;1.00
34460;DHT22;20704;51.260;22.558;2023-09-19T10:14:26;20.10;1.00
34460;DHT22;20704;51.260;22.558;2023-09-19T10:16:32;20.10;99.90
34460;DHT22;20704;51.260;22.558;2023-09-19T10:18:38;20.10;99.90
34460;DHT22;20704;51.260;22.558;2023-09-19T10:20:42;20.10;1.00
34460;DHT22;20704;51.260;22.558;2023-09-19T10:22:48;20.00;62.50
34460;DHT22;20704;51.260;22.558;2023-09-19T10:25:01;20.00;99.90
34460;DHT22;20704;51.260;22.558;2023-09-19T10:27:06;20.00;99.90
34460;DHT22;20704;51.260;22.558;2023-09-19T10:29:13;19.90;99.90
34460;DHT22;20704;51.260;22.558;2023-09-19T10:31:22;19.90;1.00
34460;DHT22;20704;51.260;22.558;2023-09-19T10:33:35;19.90;1.00
34460;DHT22;20704;51.260;22.558;2023-09-19T10:35:42;19.80;1.00
34460;DHT22;20704;51.260;22.558;2023-09-19T10:37:47;19.90;90.00
34460;DHT22;20704;51.260;22.558;2023-09-19T10:39:56;19.80;69.70
34460;DHT22;20704;51.260;22.558;2023-09-19T10:42:02;19.80;99.90
34460;DHT22;20704;51.260;22.558;2023-09-19T10:44:07;19.70;1.00
34460;DHT22;20704;51.260;22.558;2023-09-19T10:46:12;19.80;99.90
34460;DHT22;20704;51.260;22.558;2023-09-19T10:48:16;19.80;1.00
34460;DHT22;20704;51.260;22.558;2023-09-19T10:50:21;19.70;24.00
34460;DHT22;20704;51.260;22.558;2023-09-19T10:52:26;19.80;12.70
34460;DHT22;20704;51.260;22.558;2023-09-19T10:54:33;19.80;99.90
34460;DHT22;20704;51.260;22.558;2023-09-19T10:56:43;19.80;1.00
34460;DHT22;20704;51.260;22.558;2023-09-19T10:58:49;19.70;99.90
34460;DHT22;20704;51.260;22.558;2023-09-19T11:03:16;19.60;99.90
34460;DHT22;20704;51.260;22.558;2023-09-19T11:05:21;19.60;1.00
34460;DHT22;20704;51.260;22.558;2023-09-19T11:07:25;19.60;21.60
34460;DHT22;20704;51.260;22.558;2023-09-19T11:11:49;19.60;1.00
34460;DHT22;20704;51.260;22.558;2023-09-19T11:16:30;19.60;1.00
34460;DHT22;20704;51.260;22.558;2023-09-19T11:20:45;19.50;99.90
34460;DHT22;20704;51.260;22.558;2023-09-19T11:30:27;19.00;99.90
34460;DHT22;20704;51.260;22.558;2023-09-19T11:35:10;18.90;1.00
34460;DHT22;20704;51.260;22.558;2023-09-19T11:39:27;18.60;99.90
34460;DHT22;20704;51.260;22.558;2023-09-19T11:41:39;18.50;99.90
34460;DHT22;20704;51.260;22.558;2023-09-19T11:43:44;18.30;1.00
34460;DHT22;20704;51.260;22.558;2023-09-19T11:48:01;18.40;1.00
34460;DHT22;20704;51.260;22.558;2023-09-19T11:50:05;18.30;22.80
34460;DHT22;20704;51.260;22.558;2023-09-19T11:52:21;18.40;24.00
34460;DHT22;20704;51.260;22.558;2023-09-19T11:54:27;18.30;21.40
34460;DHT22;20704;51.260;22.558;2023-09-19T11:56:39;18.30;46.00
34460;DHT22;20704;51.260;22.558;2023-09-19T11:58:46;18.30;44.40
34460;DHT22;20704;51.260;22.558;2023-09-19T12:00:54;18.30;47.60
34460;DHT22;20704;51.260;22.558;2023-09-19T12:03:13;18.20;66.50
34460;DHT22;20704;51.260;22.558;2023-09-19T12:05:28;18.20;81.30
34460;DHT22;20704;51.260;22.558;2023-09-19T12:07:42;18.10;81.50
34460;DHT22;20704;51.260;22.558;2023-09-19T12:09:46;18.10;93.90
34460;DHT22;20704;51.260;22.558;2023-09-19T12:11:50;18.00;99.90
34460;DHT22;20704;51.260;22.558;2023-09-19T12:13:53;18.00;99.90
34460;DHT22;20704;51.260;22.558;2023-09-19T12:16:01;18.00;99.90
34460;DHT22;20704;51.260;22.558;2023-09-19T12:18:03;18.00;99.90
34460;DHT22;20704;51.260;22.558;2023-09-19T12:20:07;18.00;99.90
34460;DHT22;20704;51.260;22.558;2023-09-19T12:22:15;18.00;99.90
34460;DHT22;20704;51.260;22.558;2023-09-19T12:24:20;18.10;99.90
34460;DHT22;20704;51.260;22.558;2023-09-19T12:26:22;18.00;99.90
34460;DHT22;20704;51.260;22.558;2023-09-19T12:28:27;18.00;99.90
34460;DHT22;20704;51.260;22.558;2023-09-19T12:30:30;18.10;99.90
34460;DHT22;20704;51.260;22.558;2023-09-19T12:32:38;18.10;99.90
34460;DHT22;20704;51.260;22.558;2023-09-19T12:34:50;18.10;99.90
34460;DHT22;20704;51.260;22.558;2023-09-19T12:37:14;18.10;99.90
34460;DHT22;20704;51.260;22.558;2023-09-19T12:39:31;18.10;99.90
34460;DHT22;20704;51.260;22.558;2023-09-19T12:41:34;18.10;99.90
34460;DHT22;20704;51.260;22.558;2023-09-19T12:43:36;18.10;99.90
34460;DHT22;20704;51.260;22.558;2023-09-19T12:45:42;18.10;99.90
34460;DHT22;20704;51.260;22.558;2023-09-19T12:50:23;18.10;99.90
34460;DHT22;20704;51.260;22.558;2023-09-19T12:52:41;18.10;99.90
34460;DHT22;20704;51.260;22.558;2023-09-19T12:54:45;18.20;99.90
34460;DHT22;20704;51.260;22.558;2023-09-19T12:56:48;18.20;99.90
34460;DHT22;20704;51.260;22.558;2023-09-19T13:00:58;18.20;99.90
34460;DHT22;20704;51.260;22.558;2023-09-19T13:03:26;18.20;99.90
34460;DHT22;20704;51.260;22.558;2023-09-19T13:05:48;18.30;99.90
34460;DHT22;20704;51.260;22.558;2023-09-19T13:07:51;18.30;99.90
34460;DHT22;20704;51.260;22.558;2023-09-19T13:10:05;18.30;99.90
34460;DHT22;20704;51.260;22.558;2023-09-19T13:12:35;18.30;99.90
34460;DHT22;20704;51.260;22.558;2023-09-19T13:14:39;18.40;99.90
34460;DHT22;20704;51.260;22.558;2023-09-19T13:17:12;18.50;99.90
34460;DHT22;20704;51.260;22.558;2023-09-19T13:21:37;18.40;99.20
34460;DHT22;20704;51.260;22.558;2023-09-19T13:23:45;18.40;99.90
34460;DHT22;20704;51.260;22.558;2023-09-19T13:25:47;18.30;99.90
34460;DHT22;20704;51.260;22.558;2023-09-19T13:27:51;18.40;99.90
34460;DHT22;20704;51.260;22.558;2023-09-19T13:29:55;18.40;99.90
34460;DHT22;20704;51.260;22.558;2023-09-19T13:31:58;18.40;99.90
34460;DHT22;20704;51.260;22.558;2023-09-19T13:34:00;18.50;99.90
34460;DHT22;20704;51.260;22.558;2023-09-19T13:36:03;18.50;99.90
34460;DHT22;20704;51.260;22.558;2023-09-19T13:38:07;18.50;99.90
34460;DHT22;20704;51.260;22.558;2023-09-19T13:40:15;18.50;99.90
34460;DHT22;20704;51.260;22.558;2023-09-19T13:42:17;18.50;99.90
34460;DHT22;20704;51.260;22.558;2023-09-19T13:44:20;18.60;99.90